Time;durP1;ratioP1;P1;durP2;ratioP2;P2;SDS_P1;SDS_P2;PMS_P1;PMS_P2;Temp;Humidity;BMP_temperature;BMP_pressure;BME280_temperature;BME280_humidity;BME280_pressure;Samples;Min_cycle;Max_cycle;Signal;HPM_P1;HPM_P2
2021/06/24 00:02:25;;;;;;;42.00;39.33;;;15.10;99.90;;;;;;5033678;28;20025;-65
2021/06/24 00:04:53;;;;;;;40.67;38.25;;;15.10;99.90;;;;;;5033726;28;20025;-64
2021/06/24 00:07:20;;;;;;;39.42;37.00;;;15.20;99.90;;;;;;5033491;28;20030;-67
2021/06/24 00:09:47;;;;;;;41.20;38.72;;;15.20;99.90;;;;;;5032166;28;20480;-64
2021/06/24 00:12:15;;;;;;;39.17;36.78;;;15.30;99.90;;;;;;5033757;28;20035;-67
2021/06/24 00:14:42;;;;;;;39.38;36.75;;;15.30;99.90;;;;;;5033460;28;20051;-67
2021/06/24 00:17:09;;;;;;;40.42;38.08;;;15.40;99.90;;;;;;5033466;28;20429;-65
2021/06/24 00:19:37;;;;;;;39.92;37.40;;;15.50;99.90;;;;;;5033415;28;20026;-63
2021/06/24 00:22:04;;;;;;;41.22;38.90;;;15.40;99.90;;;;;;5033378;28;20030;-64
2021/06/24 00:24:31;;;;;;;39.40;37.10;;;15.50;99.90;;;;;;5033245;28;20022;-62
2021/06/24 00:26:59;;;;;;;39.50;37.20;;;15.50;99.90;;;;;;5033227;28;20021;-64
2021/06/24 00:29:26;;;;;;;37.97;35.55;;;15.50;99.90;;;;;;5033181;28;20025;-65
2021/06/24 00:31:53;;;;;;;37.72;35.33;;;15.70;99.90;;;;;;5033344;28;20100;-65
2021/06/24 00:34:21;;;;;;;38.30;36.00;;;15.70;99.90;;;;;;5033421;28;20014;-66
2021/06/24 00:36:48;;;;;;;40.75;38.35;;;15.80;99.90;;;;;;5033162;28;20524;-64
2021/06/24 00:39:15;;;;;;;39.60;37.40;;;15.90;99.90;;;;;;5033168;28;20501;-65
2021/06/24 00:41:43;;;;;;;37.38;34.90;;;16.00;99.90;;;;;;5033136;28;20014;-64
2021/06/24 00:44:11;;;;;;;34.65;32.53;;;16.10;99.90;;;;;;5033225;28;20017;-60
2021/06/24 00:46:38;;;;;;;34.85;32.65;;;16.10;99.90;;;;;;5032993;28;20028;-65
2021/06/24 00:49:06;;;;;;;36.50;34.10;;;16.30;99.90;;;;;;5033038;28;20030;-62
2021/06/24 00:51:34;;;;;;;37.45;35.05;;;16.40;99.90;;;;;;5032977;28;20033;-62
2021/06/24 00:54:01;;;;;;;38.35;35.95;;;16.50;99.90;;;;;;5032745;28;20393;-63
2021/06/24 00:56:32;;;;;;;35.28;32.78;;;16.50;99.90;;;;;;5033071;28;20102;-66
2021/06/24 00:59:04;;;;;;;34.53;32.33;;;16.50;99.90;;;;;;5033030;28;20494;-64
2021/06/24 01:01:33;;;;;;;33.03;30.92;;;16.60;99.90;;;;;;5031847;28;20025;-64
2021/06/24 01:04:01;;;;;;;35.72;33.47;;;16.60;99.90;;;;;;5032762;28;20474;-62
2021/06/24 01:06:28;;;;;;;36.47;34.17;;;16.70;99.90;;;;;;5032860;28;20101;-61
2021/06/24 01:08:55;;;;;;;36.17;33.88;;;16.70;99.90;;;;;;5033100;28;20494;-61
2021/06/24 01:11:23;;;;;;;37.05;34.92;;;16.80;99.90;;;;;;5037030;28;20032;-62
2021/06/24 01:13:51;;;;;;;34.50;32.40;;;16.90;99.90;;;;;;5036944;28;20029;-63
2021/06/24 01:16:19;;;;;;;35.33;33.22;;;17.00;99.90;;;;;;5037224;28;20018;-61
2021/06/24 01:18:48;;;;;;;34.40;32.17;;;17.10;99.90;;;;;;5036759;28;20049;-61
2021/06/24 01:21:15;;;;;;;34.90;32.80;;;17.10;99.90;;;;;;5036787;28;20522;-64
2021/06/24 01:23:44;;;;;;;34.67;32.50;;;17.10;99.90;;;;;;5036734;28;20060;-61
2021/06/24 01:26:12;;;;;;;37.15;34.85;;;17.10;99.90;;;;;;5036656;28;20022;-62
2021/06/24 01:28:41;;;;;;;36.67;34.65;;;17.10;99.90;;;;;;5036593;28;20021;-62
2021/06/24 01:31:09;;;;;;;36.78;34.58;;;17.10;99.90;;;;;;5036648;28;20036;-62
2021/06/24 01:33:37;;;;;;;40.95;38.75;;;17.20;99.90;;;;;;5036662;28;20482;-60
2021/06/24 01:36:06;;;;;;;40.78;38.58;;;17.20;99.90;;;;;;5036430;28;20064;-61
2021/06/24 01:38:35;;;;;;;38.20;36.20;;;17.30;99.90;;;;;;5036506;28;20029;-63
2021/06/24 01:41:03;;;;;;;38.30;36.28;;;17.40;99.90;;;;;;5036531;28;20466;-64
2021/06/24 01:43:31;;;;;;;35.95;34.05;;;17.60;99.90;;;;;;5036499;28;20013;-62
2021/06/24 01:45:59;;;;;;;34.90;32.90;;;17.80;99.90;;;;;;5036473;28;20013;-62
2021/06/24 01:48:28;;;;;;;34.33;32.53;;;18.20;99.90;;;;;;5036354;28;20052;-63
2021/06/24 01:50:58;;;;;;;31.40;29.60;;;18.90;99.90;;;;;;5036337;28;20028;-63
2021/06/24 01:53:26;;;;;;;32.08;30.27;;;19.20;99.90;;;;;;5036133;28;20034;-64
2021/06/24 01:55:54;;;;;;;28.95;27.45;;;19.40;99.90;;;;;;5036044;28;20052;-63
2021/06/24 01:58:23;;;;;;;26.55;25.15;;;19.60;99.90;;;;;;5036395;28;20386;-64
2021/06/24 02:00:52;;;;;;;27.25;25.70;;;19.50;99.90;;;;;;5036011;28;20037;-63
2021/06/24 02:03:20;;;;;;;25.60;24.20;;;19.60;99.90;;;;;;5036109;28;20013;-61
2021/06/24 02:05:56;;;;;;;26.92;25.52;;;19.50;99.90;;;;;;5035848;28;20047;-61
2021/06/24 02:08:28;;;;;;;24.45;23.17;;;19.50;99.90;;;;;;5035888;28;20029;-63
2021/06/24 02:10:57;;;;;;;23.73;22.45;;;19.70;99.90;;;;;;5035972;28;20075;-62
2021/06/24 02:13:26;;;;;;;23.05;21.95;;;19.80;99.90;;;;;;5035927;28;20045;-62
2021/06/24 02:15:54;;;;;;;22.83;21.63;;;20.00;99.90;;;;;;5035782;28;20040;-62
2021/06/24 02:18:21;;;;;;;22.75;21.40;;;20.20;99.90;;;;;;5035625;28;20029;-62
2021/06/24 02:20:49;;;;;;;21.60;20.50;;;20.20;99.90;;;;;;5034157;28;20025;-62
2021/06/24 02:23:16;;;;;;;20.58;19.73;;;20.30;99.90;;;;;;5035592;28;20029;-62
2021/06/24 02:25:44;;;;;;;19.38;18.38;;;20.40;99.90;;;;;;5035563;28;20474;-66
2021/06/24 02:28:11;;;;;;;19.33;18.20;;;20.40;99.90;;;;;;5035495;28;20025;-67
2021/06/24 02:30:38;;;;;;;16.90;16.05;;;20.30;99.90;;;;;;5034210;28;20025;-66
2021/06/24 02:33:10;;;;;;;16.33;15.50;;;20.10;99.90;;;;;;5035586;28;20022;-65
2021/06/24 02:35:38;;;;;;;16.30;15.50;;;20.10;99.90;;;;;;5035574;28;20021;-65
2021/06/24 02:38:08;;;;;;;15.30;14.60;;;20.10;99.90;;;;;;5035407;28;20091;-65
2021/06/24 02:40:36;;;;;;;16.23;15.40;;;20.20;99.90;;;;;;5035483;28;20070;-67
2021/06/24 02:43:03;;;;;;;15.55;14.85;;;20.30;99.90;;;;;;5035256;28;20067;-67
2021/06/24 02:45:31;;;;;;;13.68;12.88;;;20.30;99.90;;;;;;5034037;28;20052;-65
2021/06/24 02:47:59;;;;;;;12.00;11.40;;;20.60;99.90;;;;;;5035053;28;20033;-66
2021/06/24 02:50:27;;;;;;;11.88;11.23;;;20.90;99.90;;;;;;5035197;28;20021;-65
2021/06/24 02:52:54;;;;;;;10.18;9.48;;;21.20;99.90;;;;;;5035152;28;20030;-67
2021/06/24 02:55:21;;;;;;;8.95;8.27;;;21.30;99.90;;;;;;5033748;28;20046;-65
2021/06/24 02:57:49;;;;;;;7.00;6.60;;;21.60;99.90;;;;;;5035008;28;20167;-64
2021/06/24 03:00:16;;;;;;;7.15;6.50;;;21.80;99.90;;;;;;5034897;28;20017;-63
2021/06/24 03:02:44;;;;;;;6.57;6.18;;;22.00;99.90;;;;;;5034993;28;20032;-63
2021/06/24 03:05:12;;;;;;;5.82;5.53;;;21.80;99.90;;;;;;5035016;28;20449;-63
2021/06/24 03:07:40;;;;;;;5.72;5.40;;;21.60;99.90;;;;;;5034730;28;20022;-63
2021/06/24 03:10:09;;;;;;;6.22;5.72;;;21.20;99.90;;;;;;5034838;28;20021;-63
2021/06/24 03:12:36;;;;;;;6.00;5.50;;;21.20;99.90;;;;;;5034890;28;20029;-62
2021/06/24 03:15:06;;;;;;;5.80;5.40;;;21.30;99.90;;;;;;5034735;28;20029;-63
2021/06/24 03:17:35;;;;;;;5.25;4.85;;;21.60;99.90;;;;;;5034501;28;20026;-62
2021/06/24 03:20:07;;;;;;;6.00;5.40;;;21.80;99.90;;;;;;5034631;28;20026;-62
2021/06/24 03:22:35;;;;;;;5.00;4.70;;;21.60;99.90;;;;;;5034675;28;20425;-62
2021/06/24 03:25:05;;;;;;;4.60;4.30;;;21.30;99.90;;;;;;5033195;28;20028;-63
2021/06/24 03:27:32;;;;;;;4.80;4.40;;;21.30;99.90;;;;;;5034515;28;20025;-65
2021/06/24 03:30:00;;;;;;;5.50;5.20;;;21.50;99.90;;;;;;5034544;28;20259;-65
2021/06/24 03:32:27;;;;;;;5.78;5.38;;;21.80;99.90;;;;;;5033794;28;20032;-64
2021/06/24 03:34:54;;;;;;;5.30;4.95;;;21.60;99.90;;;;;;5034437;28;20029;-64
2021/06/24 03:37:22;;;;;;;5.38;5.07;;;21.50;99.90;;;;;;5034217;28;20080;-64
2021/06/24 03:39:49;;;;;;;5.78;5.28;;;21.50;99.90;;;;;;5032990;28;20429;-63
2021/06/24 03:42:17;;;;;;;5.07;4.60;;;21.70;99.90;;;;;;5034301;28;20075;-63
2021/06/24 03:44:44;;;;;;;5.60;5.10;;;22.10;99.90;;;;;;5034234;28;20382;-63
2021/06/24 03:47:11;;;;;;;5.25;4.85;;;22.20;99.90;;;;;;5034088;28;20025;-63
2021/06/24 03:49:39;;;;;;;4.60;4.30;;;22.00;99.90;;;;;;5034085;28;20022;-62
2021/06/24 03:52:06;;;;;;;4.30;4.00;;;21.90;99.90;;;;;;5034077;28;20466;-63
2021/06/24 03:54:33;;;;;;;4.97;4.38;;;21.90;99.90;;;;;;5033800;28;20048;-63
2021/06/24 03:57:01;;;;;;;4.28;3.97;;;21.90;99.90;;;;;;5034145;28;20109;-65
2021/06/24 03:59:28;;;;;;;4.50;4.10;;;22.10;99.90;;;;;;5032456;28;20017;-65
2021/06/24 04:01:55;;;;;;;4.20;3.88;;;22.10;99.90;;;;;;5033835;28;20021;-64
2021/06/24 04:04:23;;;;;;;3.78;3.53;;;22.10;99.90;;;;;;5033899;28;20021;-64
2021/06/24 04:06:50;;;;;;;4.35;4.05;;;22.10;99.90;;;;;;5033762;28;20096;-65
2021/06/24 04:09:17;;;;;;;3.92;3.63;;;22.10;99.90;;;;;;5032488;28;20061;-63
2021/06/24 04:11:45;;;;;;;4.38;4.07;;;22.20;99.90;;;;;;5033627;28;20392;-66
2021/06/24 04:14:12;;;;;;;4.25;3.95;;;21.80;99.90;;;;;;5033403;28;20061;-64
2021/06/24 04:16:40;;;;;;;4.18;3.80;;;21.50;99.90;;;;;;5033714;28;20080;-63
2021/06/24 04:19:10;;;;;;;4.25;3.70;;;21.20;99.90;;;;;;5033239;28;20025;-62
2021/06/24 04:21:37;;;;;;;4.38;3.60;;;21.00;99.90;;;;;;5033391;28;20029;-61
2021/06/24 04:24:05;;;;;;;3.42;3.22;;;20.80;99.90;;;;;;5033400;28;20030;-61
2021/06/24 04:26:32;;;;;;;3.78;3.47;;;20.80;99.90;;;;;;5033692;28;20025;-62
2021/06/24 04:29:00;;;;;;;3.63;3.42;;;20.80;99.90;;;;;;5033674;28;20067;-64
2021/06/24 04:31:27;;;;;;;3.75;3.42;;;20.90;99.90;;;;;;5033610;28;20555;-61
2021/06/24 04:33:56;;;;;;;4.13;3.80;;;20.80;99.90;;;;;;5033328;28;20078;-62
2021/06/24 04:36:24;;;;;;;3.50;3.30;;;21.00;99.90;;;;;;5033268;28;20141;-61
2021/06/24 04:38:51;;;;;;;4.07;3.67;;;21.00;99.90;;;;;;5033215;28;20025;-63
2021/06/24 04:41:18;;;;;;;4.75;4.38;;;20.90;99.90;;;;;;5033262;28;20018;-64
2021/06/24 04:43:46;;;;;;;5.13;4.70;;;20.80;99.90;;;;;;5033290;28;20020;-64
2021/06/24 04:46:14;;;;;;;4.55;4.30;;;20.90;99.90;;;;;;5033120;28;20044;-62
2021/06/24 04:48:41;;;;;;;4.38;4.00;;;20.80;99.90;;;;;;5033145;28;20026;-62
2021/06/24 04:51:08;;;;;;;5.20;4.80;;;20.60;99.90;;;;;;5033076;28;20029;-62
2021/06/24 04:53:36;;;;;;;4.70;4.50;;;20.50;99.90;;;;;;5033038;28;20478;-63
2021/06/24 04:56:03;;;;;;;5.00;4.50;;;20.40;99.90;;;;;;5032955;28;20118;-64
2021/06/24 04:58:30;;;;;;;4.65;4.35;;;20.20;99.90;;;;;;5033020;28;20136;-62
2021/06/24 05:00:58;;;;;;;4.90;4.40;;;20.10;99.90;;;;;;5033005;28;20022;-64
2021/06/24 05:03:25;;;;;;;4.85;4.53;;;20.00;99.90;;;;;;5032882;28;20375;-63
2021/06/24 05:05:53;;;;;;;5.80;5.20;;;19.90;99.90;;;;;;5032997;28;20061;-61
2021/06/24 05:08:24;;;;;;;5.40;5.00;;;19.80;99.90;;;;;;5032941;28;20028;-63
2021/06/24 05:10:51;;;;;;;5.40;5.05;;;19.70;99.90;;;;;;5033033;28;20543;-61
2021/06/24 05:13:18;;;;;;;5.57;5.10;;;19.60;99.90;;;;;;5032930;28;20029;-62
2021/06/24 05:15:46;;;;;;;5.40;4.90;;;19.60;99.90;;;;;;5032774;28;20056;-62
2021/06/24 05:18:14;;;;;;;5.40;5.00;;;19.60;99.90;;;;;;5032743;28;20025;-62
2021/06/24 05:20:46;;;;;;;5.47;4.97;;;19.60;99.90;;;;;;5032907;28;20029;-62
2021/06/24 05:23:15;;;;;;;5.20;4.35;;;19.50;99.90;;;;;;5032690;28;20116;-62
2021/06/24 05:25:44;;;;;;;4.90;4.50;;;19.50;99.90;;;;;;5032681;28;20021;-64
2021/06/24 05:28:11;;;;;;;5.10;4.70;;;19.40;99.90;;;;;;5032669;28;20501;-63
2021/06/24 05:30:39;;;;;;;5.13;4.65;;;19.50;99.90;;;;;;5032530;28;20026;-60
2021/06/24 05:33:06;;;;;;;4.80;4.32;;;19.40;99.90;;;;;;5032689;28;20103;-62
2021/06/24 05:35:34;;;;;;;5.38;5.07;;;19.40;99.90;;;;;;5032680;28;20490;-62
2021/06/24 05:38:01;;;;;;;4.50;4.30;;;19.40;99.90;;;;;;5031112;28;20037;-62
2021/06/24 05:40:29;;;;;;;4.60;4.30;;;19.40;99.90;;;;;;5032614;28;20028;-65
2021/06/24 05:42:56;;;;;;;5.20;4.72;;;19.40;99.90;;;;;;5032624;28;20447;-62
2021/06/24 05:45:29;;;;;;;5.00;4.63;;;19.50;99.90;;;;;;5032445;28;20070;-63
2021/06/24 05:47:57;;;;;;;4.88;4.47;;;19.60;99.90;;;;;;5032550;28;20477;-62
2021/06/24 05:50:26;;;;;;;5.30;4.80;;;19.80;99.90;;;;;;5032395;28;20052;-63
2021/06/24 05:52:54;;;;;;;4.97;4.57;;;19.90;99.90;;;;;;5032597;28;20021;-63
2021/06/24 05:56:10;;;;;;;5.00;4.55;;;19.90;99.90;;;;;;5033271;28;20115;-63
2021/06/24 05:58:14;;;;;;;4.40;4.00;;;19.70;99.90;;;;;;5028859;28;20049;-64
2021/06/24 06:00:42;;;;;;;4.65;4.30;;;19.60;99.90;;;;;;5036086;28;20091;-64
2021/06/24 06:03:10;;;;;;;4.80;4.40;;;19.60;99.90;;;;;;5036184;28;20101;-63
2021/06/24 06:05:38;;;;;;;4.50;4.10;;;19.70;99.90;;;;;;5035960;28;20034;-71
2021/06/24 06:08:07;;;;;;;5.18;4.68;;;19.60;99.90;;;;;;5036060;28;20040;-69
2021/06/24 06:10:36;;;;;;;4.90;4.40;;;19.60;99.90;;;;;;5035996;28;20375;-69
2021/06/24 06:13:07;;;;;;;4.70;4.30;;;19.50;99.90;;;;;;5036043;28;20021;-68
2021/06/24 06:15:36;;;;;;;4.72;4.50;;;19.50;99.90;;;;;;5035978;28;20025;-68
2021/06/24 06:18:25;;;;;;;4.70;4.35;;;19.40;99.90;;;;;;5035759;28;20383;-69
2021/06/24 06:20:54;;;;;;;4.50;4.20;;;19.50;99.90;;;;;;5034349;28;20504;-68
2021/06/24 06:23:23;;;;;;;4.50;4.10;;;19.40;99.90;;;;;;5035809;28;20044;-69
2021/06/24 06:25:52;;;;;;;4.32;4.03;;;19.30;99.90;;;;;;5035738;28;20020;-68
2021/06/24 06:28:21;;;;;;;5.72;5.13;;;19.10;99.90;;;;;;5035792;28;20550;-70
2021/06/24 06:30:51;;;;;;;5.30;5.00;;;18.90;99.90;;;;;;5035267;28;20029;-68
2021/06/24 06:33:19;;;;;;;5.07;4.70;;;18.80;99.90;;;;;;5035686;28;20391;-68
2021/06/24 06:35:47;;;;;;;4.63;4.40;;;18.60;99.90;;;;;;5035539;28;20021;-68
2021/06/24 06:38:15;;;;;;;5.20;4.75;;;18.50;99.90;;;;;;5035449;28;20071;-67
2021/06/24 06:40:43;;;;;;;4.90;4.57;;;18.40;99.90;;;;;;5035491;28;20020;-68
2021/06/24 06:43:12;;;;;;;4.57;4.28;;;18.30;99.90;;;;;;5035469;28;20018;-68
2021/06/24 06:45:40;;;;;;;4.88;4.60;;;18.20;99.90;;;;;;5035370;28;20076;-68
2021/06/24 06:48:07;;;;;;;5.72;5.25;;;18.20;99.90;;;;;;5035314;28;20075;-68
2021/06/24 06:50:35;;;;;;;5.50;5.03;;;18.10;99.90;;;;;;5035344;28;20033;-68
2021/06/24 06:53:02;;;;;;;5.82;5.47;;;18.10;99.90;;;;;;5035265;28;20021;-69
2021/06/24 06:55:29;;;;;;;5.20;4.80;;;18.00;99.90;;;;;;5033738;28;20518;-69
2021/06/24 06:57:57;;;;;;;5.13;4.82;;;18.00;99.90;;;;;;5033640;28;20053;-68
2021/06/24 07:00:25;;;;;;;5.63;5.13;;;18.00;99.90;;;;;;5035068;28;20025;-68
2021/06/24 07:02:53;;;;;;;5.00;4.70;;;17.90;99.90;;;;;;5034998;28;20022;-70
2021/06/24 07:05:20;;;;;;;5.40;5.00;;;17.90;99.90;;;;;;5034975;28;20021;-69
2021/06/24 07:07:48;;;;;;;5.70;5.40;;;17.90;99.90;;;;;;5033756;28;20479;-68
2021/06/24 07:10:18;;;;;;;9.45;6.88;;;17.80;99.90;;;;;;5034914;28;20025;-69
2021/06/24 07:12:45;;;;;;;6.23;5.93;;;17.80;99.90;;;;;;5033417;28;20390;-68
2021/06/24 07:15:13;;;;;;;6.55;5.90;;;17.60;99.90;;;;;;5034746;28;20028;-68
2021/06/24 07:17:42;;;;;;;6.03;5.72;;;17.50;99.90;;;;;;5034592;28;20496;-69
2021/06/24 07:20:10;;;;;;;6.57;6.10;;;17.30;99.90;;;;;;5035025;28;20033;-69
2021/06/24 07:22:38;;;;;;;6.30;5.93;;;17.20;99.90;;;;;;5034549;28;20320;-67
2021/06/24 07:25:07;;;;;;;7.30;6.80;;;17.10;99.90;;;;;;5034577;28;20032;-64
2021/06/24 07:27:34;;;;;;;8.27;7.35;;;17.00;99.90;;;;;;5034362;28;20491;-67
2021/06/24 07:30:01;;;;;;;8.00;7.40;;;16.90;99.90;;;;;;5033352;28;20032;-66
2021/06/24 07:32:29;;;;;;;6.97;6.57;;;16.80;99.90;;;;;;5034553;28;20067;-67
2021/06/24 07:34:56;;;;;;;7.88;7.30;;;16.80;99.90;;;;;;5034386;28;20394;-67
2021/06/24 07:37:23;;;;;;;8.40;7.90;;;16.80;99.90;;;;;;5034317;28;20037;-68
2021/06/24 07:39:51;;;;;;;8.70;8.30;;;16.80;99.90;;;;;;5034408;28;20017;-68
2021/06/24 07:42:19;;;;;;;8.88;7.90;;;16.80;99.90;;;;;;5034306;28;20044;-68
2021/06/24 07:44:48;;;;;;;8.80;8.20;;;17.00;99.90;;;;;;5034234;28;20023;-67
2021/06/24 07:47:18;;;;;;;7.78;7.22;;;17.00;99.90;;;;;;5034209;28;20028;-67
2021/06/24 07:49:48;;;;;;;7.50;7.00;;;17.00;99.90;;;;;;5034045;28;20047;-66
2021/06/24 07:52:17;;;;;;;7.00;6.70;;;17.10;99.90;;;;;;5034122;28;20025;-67
2021/06/24 07:54:44;;;;;;;7.80;7.40;;;17.00;99.90;;;;;;5033692;28;20498;-67
2021/06/24 07:57:12;;;;;;;7.97;7.55;;;17.10;99.90;;;;;;5033861;28;20033;-67
2021/06/24 07:59:39;;;;;;;7.95;7.60;;;17.10;99.90;;;;;;5033928;28;20041;-66
2021/06/24 08:02:06;;;;;;;8.38;7.72;;;16.90;99.90;;;;;;5033974;28;20112;-66
2021/06/24 08:04:34;;;;;;;8.15;7.65;;;16.80;99.90;;;;;;5033932;28;20036;-66
2021/06/24 08:07:03;;;;;;;8.50;7.90;;;16.80;99.90;;;;;;5033938;28;20479;-66
2021/06/24 08:09:30;;;;;;;8.13;7.70;;;16.70;99.90;;;;;;5032372;28;20032;-67
2021/06/24 08:11:58;;;;;;;8.77;8.13;;;16.50;99.90;;;;;;5033335;28;20394;-67
2021/06/24 08:14:25;;;;;;;8.00;7.65;;;16.40;99.90;;;;;;5033729;28;20014;-67
2021/06/24 08:16:52;;;;;;;10.07;9.30;;;16.30;99.90;;;;;;5033630;28;20021;-65
2021/06/24 08:19:20;;;;;;;9.75;9.10;;;16.10;99.90;;;;;;5033212;28;20040;-67
2021/06/24 08:21:47;;;;;;;9.98;9.45;;;16.10;99.90;;;;;;5033593;28;20033;-67
2021/06/24 08:24:15;;;;;;;9.73;9.18;;;15.90;99.90;;;;;;5033683;28;20025;-67
2021/06/24 08:26:42;;;;;;;10.80;10.30;;;15.80;99.90;;;;;;5033399;28;20387;-66
2021/06/24 08:29:10;;;;;;;10.38;9.70;;;15.80;99.90;;;;;;5033437;28;20017;-67
2021/06/24 08:31:37;;;;;;;11.18;10.68;;;15.70;99.90;;;;;;5033404;28;20025;-67
2021/06/24 08:34:04;;;;;;;11.82;11.15;;;15.60;99.90;;;;;;5033378;28;20489;-66
2021/06/24 08:36:32;;;;;;;12.00;11.32;;;15.70;99.90;;;;;;5033344;28;20546;-67
2021/06/24 08:38:59;;;;;;;12.70;11.90;;;15.70;99.90;;;;;;5033292;28;20026;-66
2021/06/24 08:41:27;;;;;;;12.80;11.95;;;15.90;99.90;;;;;;5033246;28;20013;-66
2021/06/24 08:43:55;;;;;;;12.90;12.30;;;16.00;99.90;;;;;;5032168;28;20025;-66
2021/06/24 08:46:23;;;;;;;12.52;11.75;;;16.00;99.90;;;;;;5033146;28;20032;-66
2021/06/24 08:48:51;;;;;;;12.85;11.98;;;16.00;99.90;;;;;;5033203;28;20482;-66
2021/06/24 08:51:19;;;;;;;12.80;12.20;;;16.10;99.90;;;;;;5033291;28;20071;-67
2021/06/24 08:53:47;;;;;;;11.77;11.27;;;16.10;99.90;;;;;;5032996;28;20073;-66
2021/06/24 08:56:16;;;;;;;12.70;12.10;;;16.10;99.90;;;;;;5031719;28;20071;-66
2021/06/24 08:58:46;;;;;;;13.43;12.63;;;16.20;99.90;;;;;;5032967;28;20065;-67
2021/06/24 09:01:13;;;;;;;13.40;12.80;;;16.20;99.90;;;;;;5032986;28;20033;-66
2021/06/24 09:03:40;;;;;;;14.23;13.35;;;16.20;99.90;;;;;;5032930;28;20509;-68
2021/06/24 09:06:11;;;;;;;13.90;13.10;;;16.20;99.90;;;;;;5033003;28;20386;-69
2021/06/24 09:08:52;;;;;;;13.50;12.70;;;16.20;99.90;;;;;;5032903;28;20029;-69
2021/06/24 09:11:28;;;;;;;14.75;13.95;;;16.20;99.90;;;;;;5032994;28;20490;-68
2021/06/24 09:14:04;;;;;;;13.93;13.13;;;16.20;99.90;;;;;;5031607;28;20029;-70
2021/06/24 09:16:37;;;;;;;13.75;13.00;;;16.10;99.90;;;;;;5031527;28;20386;-70
2021/06/24 09:19:23;;;;;;;14.20;13.50;;;16.00;99.90;;;;;;5031455;28;20116;-69
2021/06/24 09:22:02;;;;;;;14.05;13.27;;;16.00;99.90;;;;;;5032874;28;20494;-69
2021/06/24 09:24:37;;;;;;;15.07;14.38;;;16.00;99.90;;;;;;5032887;28;20475;-69
2021/06/24 09:27:26;;;;;;;15.52;14.60;;;16.00;99.90;;;;;;5032786;28;20043;-68
2021/06/24 09:30:07;;;;;;;15.20;14.50;;;16.00;99.90;;;;;;5033052;28;20062;-68
2021/06/24 09:32:39;;;;;;;15.98;15.18;;;15.90;99.90;;;;;;5036754;28;20025;-68
2021/06/24 09:35:08;;;;;;;15.20;14.40;;;15.80;99.90;;;;;;5036611;28;20032;-68
2021/06/24 09:38:14;;;;;;;15.52;14.82;;;15.80;99.90;;;;;;5036599;28;20104;-68
2021/06/24 09:40:56;;;;;;;16.90;15.90;;;15.80;99.90;;;;;;5036669;28;20068;-70
2021/06/24 09:43:40;;;;;;;16.25;15.50;;;15.80;99.90;;;;;;5036411;28;20057;-69
2021/06/24 09:46:18;;;;;;;17.30;16.38;;;15.60;99.90;;;;;;5036499;28;20022;-68
2021/06/24 09:48:49;;;;;;;17.00;16.08;;;15.60;99.90;;;;;;5036450;28;20032;-66
2021/06/24 09:51:18;;;;;;;17.55;16.55;;;15.40;99.90;;;;;;5036251;28;20174;-66
2021/06/24 09:54:13;;;;;;;18.80;17.90;;;15.40;99.90;;;;;;5036181;28;20486;-67
2021/06/24 09:56:45;;;;;;;20.02;19.02;;;15.50;99.90;;;;;;5036160;28;20124;-66
2021/06/24 09:59:15;;;;;;;21.40;20.40;;;15.50;99.90;;;;;;5036130;28;20438;-70
2021/06/24 10:01:45;;;;;;;22.37;21.17;;;15.50;99.90;;;;;;5034719;28;20466;-68
2021/06/24 10:04:23;;;;;;;22.80;21.70;;;15.50;99.90;;;;;;5036116;28;20332;-67
2021/06/24 10:06:53;;;;;;;22.80;21.65;;;15.50;99.90;;;;;;5036029;28;20025;-67
2021/06/24 10:09:22;;;;;;;23.30;22.10;;;15.50;99.90;;;;;;5036216;28;20029;-68
2021/06/24 10:11:49;;;;;;;24.38;23.15;;;15.40;99.90;;;;;;5035947;28;20021;-63
2021/06/24 10:14:19;;;;;;;24.95;23.70;;;15.30;99.90;;;;;;5035841;28;20367;-63
2021/06/24 10:16:52;;;;;;;25.85;24.55;;;15.30;99.90;;;;;;5034527;28;20414;-63
2021/06/24 10:19:26;;;;;;;26.35;25.08;;;15.40;99.90;;;;;;5036012;28;20104;-63
2021/06/24 10:22:18;;;;;;;26.50;25.15;;;15.30;99.90;;;;;;5034593;28;20103;-63
2021/06/24 10:24:53;;;;;;;27.52;26.13;;;15.40;99.90;;;;;;5035755;28;20104;-63
2021/06/24 10:27:24;;;;;;;28.15;26.55;;;15.40;99.90;;;;;;5035496;28;20091;-62
2021/06/24 10:29:53;;;;;;;28.65;27.05;;;15.40;99.90;;;;;;5035548;28;20020;-63
2021/06/24 10:32:32;;;;;;;28.70;27.15;;;15.50;99.90;;;;;;5035459;28;20084;-62
2021/06/24 10:35:03;;;;;;;28.73;27.23;;;15.60;99.90;;;;;;5035391;28;20021;-62
2021/06/24 10:37:32;;;;;;;29.02;27.38;;;15.60;99.90;;;;;;5035416;28;20017;-64
2021/06/24 10:40:19;;;;;;;29.40;27.90;;;15.70;99.90;;;;;;5035438;28;20036;-63
2021/06/24 10:42:52;;;;;;;28.80;27.30;;;15.70;99.90;;;;;;5035239;28;20099;-63
2021/06/24 10:45:21;;;;;;;28.25;26.85;;;15.80;99.90;;;;;;5035189;28;20026;-63
2021/06/24 10:47:48;;;;;;;28.75;27.25;;;15.90;99.90;;;;;;5035119;28;20474;-63
2021/06/24 10:50:29;;;;;;;28.45;27.13;;;16.10;99.90;;;;;;5035082;28;20028;-63
2021/06/24 10:52:57;;;;;;;29.58;27.98;;;16.30;99.90;;;;;;5034969;28;20022;-63
2021/06/24 10:55:40;;;;;;;30.60;28.92;;;16.30;99.90;;;;;;5034870;28;20049;-63
2021/06/24 10:58:19;;;;;;;30.17;28.63;;;16.20;99.90;;;;;;5035000;28;20457;-63
2021/06/24 11:00:47;;;;;;;31.08;29.48;;;16.20;99.90;;;;;;5035077;28;20028;-64
2021/06/24 11:03:26;;;;;;;30.73;29.02;;;16.20;99.90;;;;;;5035002;28;20097;-64
2021/06/24 11:05:55;;;;;;;32.13;30.33;;;16.00;99.90;;;;;;5034934;28;20029;-63
2021/06/24 11:08:31;;;;;;;33.08;31.27;;;15.80;99.90;;;;;;5034958;28;20097;-64
2021/06/24 11:11:11;;;;;;;34.72;32.42;;;15.70;99.90;;;;;;5034886;28;20029;-63
2021/06/24 11:16:25;;;;;;;35.33;33.28;;;15.60;99.90;;;;;;5035106;28;20261;-63
2021/06/24 11:18:57;;;;;;;36.20;34.10;;;15.50;99.90;;;;;;5027723;28;20426;-63
2021/06/24 11:21:30;;;;;;;36.47;34.38;;;15.50;99.90;;;;;;5034551;28;20029;-64
2021/06/24 11:24:07;;;;;;;36.53;34.33;;;15.40;99.90;;;;;;5034589;28;20018;-64
2021/06/24 11:26:35;;;;;;;36.75;34.65;;;15.40;99.90;;;;;;5034620;28;20110;-62
2021/06/24 11:32:16;;;;;;;36.45;34.25;;;15.30;99.90;;;;;;5027903;28;20371;-66
2021/06/24 11:34:58;;;;;;;38.13;35.83;;;15.20;99.90;;;;;;5034004;28;20041;-63
2021/06/24 11:37:30;;;;;;;37.17;35.03;;;15.20;99.90;;;;;;5034382;28;20112;-63
2021/06/24 11:40:04;;;;;;;40.63;38.30;;;15.20;99.90;;;;;;5034422;28;20537;-63
2021/06/24 11:42:38;;;;;;;41.50;39.10;;;15.10;99.90;;;;;;5034517;28;20520;-64
2021/06/24 11:45:09;;;;;;;42.10;39.78;;;15.20;99.90;;;;;;5034239;28;20031;-64
2021/06/24 11:47:38;;;;;;;41.65;39.25;;;15.00;99.90;;;;;;5034194;28;20049;-63
2021/06/24 12:04:33;;;;;;;41.42;39.03;;;14.80;99.90;;;;;;5034208;28;20032;-63
2021/06/24 12:07:08;;;;;;;42.53;40.08;;;14.80;99.90;;;;;;5033778;28;20145;-63
2021/06/24 12:09:55;;;;;;;42.35;39.85;;;14.80;99.90;;;;;;5033682;28;20026;-63
2021/06/24 12:12:24;;;;;;;43.00;40.47;;;14.70;99.90;;;;;;5033763;28;20389;-63
2021/06/24 12:14:57;;;;;;;43.38;40.92;;;14.70;99.90;;;;;;5033730;28;20025;-63
2021/06/24 12:17:39;;;;;;;42.15;39.58;;;14.60;99.90;;;;;;5032206;28;20025;-63
2021/06/24 12:20:09;;;;;;;45.75;43.13;;;14.60;99.90;;;;;;5032386;28;20060;-63
2021/06/24 12:22:39;;;;;;;47.08;44.45;;;14.60;99.90;;;;;;5033528;28;20017;-63
2021/06/24 12:25:08;;;;;;;44.25;41.58;;;14.70;99.90;;;;;;5033589;28;20028;-62
2021/06/24 12:27:46;;;;;;;43.58;40.97;;;14.60;99.90;;;;;;5033559;28;20072;-63
2021/06/24 12:30:15;;;;;;;43.95;41.35;;;14.60;99.90;;;;;;5033426;28;20030;-62
2021/06/24 12:32:55;;;;;;;41.88;39.28;;;14.80;99.90;;;;;;5033333;28;20025;-64
2021/06/24 12:35:28;;;;;;;41.72;39.20;;;14.70;99.90;;;;;;5033388;28;20482;-63
2021/06/24 12:37:58;;;;;;;41.50;38.90;;;14.90;99.90;;;;;;5031849;28;20029;-64
2021/06/24 12:40:31;;;;;;;41.35;38.67;;;14.90;99.90;;;;;;5033326;28;20438;-64
2021/06/24 12:43:00;;;;;;;42.20;39.50;;;15.00;99.90;;;;;;5033576;28;20029;-65
2021/06/24 12:45:31;;;;;;;42.53;40.03;;;15.00;99.90;;;;;;5033307;28;20032;-63
2021/06/24 12:48:00;;;;;;;44.88;42.28;;;15.00;99.90;;;;;;5033332;28;20017;-63
2021/06/24 12:50:35;;;;;;;44.08;41.47;;;14.90;99.90;;;;;;5033180;28;20532;-62
2021/06/24 12:53:08;;;;;;;45.50;42.75;;;15.00;99.90;;;;;;5033068;28;20057;-62
2021/06/24 12:55:42;;;;;;;44.88;42.38;;;15.00;99.90;;;;;;5031448;28;20506;-62
2021/06/24 12:58:10;;;;;;;45.33;42.65;;;15.00;99.90;;;;;;5033343;28;20029;-62
2021/06/24 13:00:39;;;;;;;43.05;40.55;;;15.00;99.90;;;;;;5031702;28;20022;-63
2021/06/24 13:03:08;;;;;;;43.65;41.05;;;15.00;99.90;;;;;;5033074;28;20032;-63
2021/06/24 13:05:36;;;;;;;43.25;40.65;;;15.00;99.90;;;;;;5032078;28;20018;-62
2021/06/24 13:08:09;;;;;;;42.85;40.25;;;14.90;99.90;;;;;;5031616;28;20552;-62
2021/06/24 13:10:47;;;;;;;42.63;39.92;;;14.90;99.90;;;;;;5032902;28;20073;-62